Pioneer, Ohio
Current Conditions -  °F | °C
As of 8:35 AM on Sunday 21 Dec 2014 (Local Time) from KJYM Reporting Station
Haze Haze  
Wind Chill: 29°   Ceiling: 6000
Heat Index: 29°   Visibility: 2.5mi
Dew Point: 28°   Wind: 3mph
Humidity: 97%   Direction: 170°S
Pressure: 30.25"   Gusts: NA
Location:  41.68°N, 84.55°W
Report Text: KJYM 211335Z AUTO 17003KT 2 1/2SM BR OVC060 M02/M02 A3025 RMK AO2 T10191023
Loading
Personal Weather Stations






























Interactive Weather Map New forecast layout! Learn more

10-Day Weather Forecast

Advertisements
Track Severe Weather on mobile